Terminal Aerodrome Forecast
Issued by NWS Charleston, WV

Current Version | Previous Version | Text Only | Print | Product List | Glossary Off
Versions: 1 2 3 4 5 6 7 8 9 10 11 12 13 14 15 16 17 18 19 20 21 22 23 24 25 26 27 28 29

000
FTUS41 KRLX 260400 AAB
TAFCRW
TAF AMD
KCRW 260410Z 2604/2624 12004KT 6SM -RA BR SCT025 BKN035
      TEMPO 2604/2605 4SM -RA BR BKN025
     FM260500 13004KT 4SM -RA BR SCT025 BKN035
      TEMPO 2605/2608 1 1/2SM -RA BR BKN025
     FM260800 13004KT 2SM -RA BR OVC015
     FM261150 00000KT 2SM -RASN BR OVC008=

USA.gov is the U.S. government's official web portal to all federal, state and local government web resources and services.